Terminal Aerodrome Forecast
Issued by NWS

Home | Current Version | Previous Version | Text Only | Print | Product List | Glossary On
Versions: 1 2 3 4 5 6 7 8 9 10 11 12 13 14 15 16 17 18 19 20 21 22 23 24 25 26
000
FTUS43 KLSX 220100 AAA
TAFUIN
TAF AMD
KUIN 220148Z 2202/2224 15011KT P6SM SCT020 OVC045
     FM221300 14012KT 3SM -RA BR SCT008 OVC015
     FM221800 14012KT 3SM -RA BR OVC008=

USA.gov is the U.S. government's official web portal to all federal, state and local government web resources and services.